Time;durP1;ratioP1;P1;durP2;ratioP2;P2;SDS_P1;SDS_P2;PMS_P1;PMS_P2;Temp;Humidity;BMP_temperature;BMP_pressure;BME280_temperature;BME280_humidity;BME280_pressure;Samples;Min_cycle;Max_cycle;Signal;HPM_P1;HPM_P2
2023/11/15 00:00:33;;;;;;;0.10;0.10;;;11.30;99.90;;;;;;5046878;28;20024;-76
2023/11/15 00:02:58;;;;;;;0.10;0.10;;;11.30;99.90;;;;;;5046842;28;20037;-77
2023/11/15 00:05:24;;;;;;;0.20;0.20;;;11.30;99.90;;;;;;5047410;28;20832;-75
2023/11/15 00:07:50;;;;;;;0.43;0.43;;;11.30;99.90;;;;;;5046950;28;20142;-75
2023/11/15 00:10:15;;;;;;;0.00;0.00;;;11.40;99.90;;;;;;5052026;28;20033;-75
2023/11/15 00:12:42;;;;;;;0.40;0.40;;;11.60;99.90;;;;;;5042504;28;20033;-75
2023/11/15 00:15:08;;;;;;;;;;;11.80;99.90;;;;;;5045947;28;20789;-75
2023/11/15 00:17:36;;;;;;;0.00;0.00;;;11.90;99.90;;;;;;5048284;28;19912;-75
2023/11/15 00:20:03;;;;;;;0.10;0.10;;;12.10;99.90;;;;;;5045793;28;20088;-75
2023/11/15 00:22:30;;;;;;;0.10;0.10;;;12.00;99.90;;;;;;5045188;28;20029;-74
2023/11/15 00:24:58;;;;;;;0.10;0.10;;;12.00;99.90;;;;;;5047442;28;20083;-75
2023/11/15 00:27:23;;;;;;;0.10;0.10;;;11.90;99.90;;;;;;5047867;28;20037;-75
2023/11/15 00:29:49;;;;;;;0.00;0.00;;;12.00;99.90;;;;;;5046281;28;20066;-75
2023/11/15 00:32:15;;;;;;;0.00;0.00;;;11.80;99.90;;;;;;5051284;28;20148;-75
2023/11/15 00:34:40;;;;;;;0.10;0.10;;;11.80;99.90;;;;;;5047127;28;20036;-75
2023/11/15 00:37:06;;;;;;;0.10;0.10;;;11.90;99.90;;;;;;5047471;28;20049;-75
2023/11/15 00:39:32;;;;;;;0.10;0.10;;;12.00;99.90;;;;;;5049213;28;20741;-75
2023/11/15 00:41:58;;;;;;;0.00;0.00;;;12.10;99.90;;;;;;5048699;28;20072;-75
2023/11/15 00:44:24;;;;;;;0.10;0.10;;;12.00;99.90;;;;;;5046474;28;20072;-75
2023/11/15 00:46:49;;;;;;;0.05;0.05;;;12.10;99.90;;;;;;5046891;28;20021;-75
2023/11/15 00:49:15;;;;;;;0.00;0.00;;;12.00;99.90;;;;;;5049476;28;20070;-75
2023/11/15 00:51:41;;;;;;;0.03;0.03;;;11.90;99.90;;;;;;5050164;28;20589;-76
2023/11/15 00:54:07;;;;;;;0.10;0.10;;;11.90;99.90;;;;;;5058560;28;20037;-75
2023/11/15 00:56:33;;;;;;;0.00;0.00;;;12.00;99.90;;;;;;5057250;28;20052;-75
2023/11/15 00:58:58;;;;;;;0.10;0.10;;;12.00;99.90;;;;;;5052879;28;20024;-75
2023/11/15 01:01:27;;;;;;;0.00;0.00;;;12.10;99.90;;;;;;5054742;28;20533;-75
2023/11/15 01:03:56;;;;;;;0.00;0.00;;;12.00;99.90;;;;;;5046685;28;20044;-75
2023/11/15 01:06:25;;;;;;;0.00;0.00;;;11.80;99.90;;;;;;5054498;28;20076;-75
2023/11/15 01:08:51;;;;;;;0.10;0.10;;;11.90;99.90;;;;;;5052436;28;20075;-76
2023/11/15 01:11:18;;;;;;;0.10;0.10;;;11.80;99.90;;;;;;5047319;28;20028;-77
2023/11/15 01:13:47;;;;;;;0.00;0.00;;;11.60;99.90;;;;;;5048690;28;20124;-76
2023/11/15 01:16:14;;;;;;;0.00;0.00;;;11.60;99.90;;;;;;5037461;28;20021;-76
2023/11/15 01:18:40;;;;;;;0.00;0.00;;;11.60;99.90;;;;;;5045845;28;20044;-76
2023/11/15 01:21:08;;;;;;;0.10;0.10;;;11.70;99.90;;;;;;5048296;28;20029;-77
2023/11/15 01:23:35;;;;;;;0.10;0.10;;;11.70;99.90;;;;;;5049738;28;20032;-76
2023/11/15 01:26:01;;;;;;;0.13;0.13;;;11.50;99.90;;;;;;5050196;28;20577;-76
2023/11/15 01:28:27;;;;;;;0.10;0.10;;;11.30;99.90;;;;;;5050108;28;20033;-76
2023/11/15 01:30:52;;;;;;;0.10;0.10;;;11.20;99.90;;;;;;5050748;28;20071;-76
2023/11/15 01:33:18;;;;;;;0.00;0.00;;;11.10;99.90;;;;;;5036909;28;20029;-76
2023/11/15 01:35:43;;;;;;;0.00;0.00;;;11.10;99.90;;;;;;5044429;28;20025;-76
2023/11/15 01:38:09;;;;;;;0.00;0.00;;;11.10;99.90;;;;;;5040714;28;20029;-75
2023/11/15 01:40:37;;;;;;;0.10;0.10;;;11.20;99.90;;;;;;5049615;28;20036;-75
2023/11/15 01:43:04;;;;;;;0.03;0.03;;;11.40;99.90;;;;;;5046569;28;20697;-75
2023/11/15 01:45:30;;;;;;;0.10;0.10;;;11.50;99.90;;;;;;5048351;28;20037;-75
2023/11/15 01:47:56;;;;;;;0.10;0.10;;;11.50;99.90;;;;;;5047974;28;20637;-75
2023/11/15 01:50:22;;;;;;;0.00;0.00;;;11.50;99.90;;;;;;5042273;28;20040;-75
2023/11/15 01:52:48;;;;;;;0.10;0.10;;;11.30;99.90;;;;;;5049575;28;20086;-75
2023/11/15 01:55:16;;;;;;;0.10;0.10;;;11.30;99.90;;;;;;5044092;28;20061;-75
2023/11/15 01:57:44;;;;;;;0.10;0.10;;;11.30;99.90;;;;;;5040968;28;20029;-75
2023/11/15 02:00:11;;;;;;;0.00;0.00;;;11.30;99.90;;;;;;5049288;28;20756;-75
2023/11/15 02:02:41;;;;;;;0.00;0.00;;;11.30;99.90;;;;;;5063786;28;20700;-75
2023/11/15 02:05:09;;;;;;;0.00;0.00;;;11.20;99.90;;;;;;5048898;28;20033;-75
2023/11/15 02:07:36;;;;;;;0.00;0.00;;;11.10;99.90;;;;;;5045998;28;20037;-75
2023/11/15 02:10:04;;;;;;;0.00;0.00;;;11.00;99.90;;;;;;5042556;28;20040;-76
2023/11/15 02:12:30;;;;;;;0.10;0.10;;;10.90;99.90;;;;;;5050088;28;20032;-76
2023/11/15 02:14:55;;;;;;;0.00;0.00;;;10.90;99.90;;;;;;5049336;28;20025;-76
2023/11/15 02:17:22;;;;;;;0.00;0.00;;;10.90;99.90;;;;;;5050141;28;20036;-75
2023/11/15 02:19:48;;;;;;;;;;;11.00;99.90;;;;;;5049011;28;20029;-76
2023/11/15 02:22:14;;;;;;;0.05;0.05;;;10.90;99.90;;;;;;5050402;28;20477;-75
2023/11/15 02:24:40;;;;;;;0.00;0.00;;;10.80;99.90;;;;;;5048469;28;20068;-75
2023/11/15 02:27:06;;;;;;;0.53;0.53;;;10.80;99.90;;;;;;5047253;28;20037;-75
2023/11/15 02:29:31;;;;;;;0.00;0.00;;;10.90;99.90;;;;;;5048232;28;20090;-76
2023/11/15 02:31:57;;;;;;;0.00;0.00;;;11.10;99.90;;;;;;5048609;28;20021;-75
2023/11/15 02:34:22;;;;;;;0.00;0.00;;;11.30;99.90;;;;;;5047120;28;20029;-76
2023/11/15 02:36:48;;;;;;;0.10;0.10;;;11.20;99.90;;;;;;5048315;28;20048;-76
2023/11/15 02:39:14;;;;;;;0.03;0.03;;;11.10;99.90;;;;;;5042811;28;20035;-75
2023/11/15 02:41:40;;;;;;;0.00;0.00;;;10.90;99.90;;;;;;5048025;28;20120;-76
2023/11/15 02:44:06;;;;;;;0.00;0.00;;;10.80;99.90;;;;;;5048613;28;20029;-76
2023/11/15 02:46:32;;;;;;;2.28;2.17;;;10.80;99.90;;;;;;5050161;28;20095;-76
2023/11/15 02:48:58;;;;;;;0.00;0.00;;;10.90;99.90;;;;;;5047486;28;20025;-76
2023/11/15 02:51:23;;;;;;;0.00;0.00;;;11.20;99.90;;;;;;5045310;28;20066;-75
2023/11/15 02:53:49;;;;;;;0.00;0.00;;;11.30;99.90;;;;;;5044966;28;20040;-76
2023/11/15 02:56:15;;;;;;;0.00;0.00;;;11.20;99.90;;;;;;5046294;28;20021;-76
2023/11/15 02:58:40;;;;;;;0.10;0.10;;;11.10;99.90;;;;;;5044364;28;20086;-76
2023/11/15 03:01:07;;;;;;;0.00;0.00;;;11.10;99.90;;;;;;5042666;28;20059;-76
2023/11/15 03:03:35;;;;;;;0.00;0.00;;;11.20;99.90;;;;;;5035072;28;20029;-76
2023/11/15 03:06:03;;;;;;;0.00;0.00;;;11.20;99.90;;;;;;5047146;28;20028;-76
2023/11/15 03:08:32;;;;;;;0.00;0.00;;;11.10;99.90;;;;;;5047136;28;20086;-76
2023/11/15 03:10:58;;;;;;;0.08;0.08;;;11.00;99.90;;;;;;5045812;28;20037;-76
2023/11/15 03:13:24;;;;;;;0.00;0.00;;;11.20;99.90;;;;;;5040687;28;20407;-76
2023/11/15 03:15:50;;;;;;;0.10;0.10;;;11.10;99.90;;;;;;5042486;28;20033;-76
2023/11/15 03:18:16;;;;;;;0.10;0.10;;;10.90;99.90;;;;;;5038507;28;20561;-75
2023/11/15 03:20:42;;;;;;;0.35;0.35;;;10.70;99.90;;;;;;5046891;28;20151;-75
2023/11/15 03:23:09;;;;;;;0.00;0.00;;;10.60;99.90;;;;;;5046623;28;20041;-75
2023/11/15 03:25:36;;;;;;;0.00;0.00;;;10.50;99.90;;;;;;5041762;28;20043;-75
2023/11/15 03:28:01;;;;;;;0.00;0.00;;;10.50;99.90;;;;;;5039158;28;20029;-76
2023/11/15 03:30:27;;;;;;;0.00;0.00;;;10.40;99.90;;;;;;5046913;28;20041;-75
2023/11/15 03:32:53;;;;;;;0.00;0.00;;;10.30;99.90;;;;;;5043474;28;20029;-77
2023/11/15 03:35:20;;;;;;;0.10;0.10;;;10.30;99.90;;;;;;5048272;28;20907;-77
2023/11/15 03:37:46;;;;;;;0.10;0.10;;;10.30;99.90;;;;;;5046285;28;20029;-77
2023/11/15 03:40:12;;;;;;;0.00;0.00;;;10.20;99.90;;;;;;5047324;28;20103;-77
2023/11/15 03:42:38;;;;;;;0.00;0.00;;;10.20;99.90;;;;;;5051519;28;20173;-76
2023/11/15 03:45:05;;;;;;;0.03;0.03;;;10.10;99.90;;;;;;5051013;28;20110;-77
2023/11/15 03:47:32;;;;;;;0.00;0.00;;;10.00;99.90;;;;;;5051239;28;20028;-76
2023/11/15 03:50:00;;;;;;;;;;;10.00;99.90;;;;;;5051195;28;20025;-76
2023/11/15 03:52:26;;;;;;;0.10;0.10;;;10.10;99.90;;;;;;5047652;28;19908;-76
2023/11/15 03:54:52;;;;;;;0.15;0.15;;;10.00;99.90;;;;;;5055293;28;20031;-77
2023/11/15 03:57:17;;;;;;;0.10;0.10;;;10.00;99.90;;;;;;5040700;28;20037;-77
2023/11/15 03:59:43;;;;;;;0.00;0.00;;;10.20;99.90;;;;;;5047030;28;20459;-77
2023/11/15 04:02:09;;;;;;;2.60;0.55;;;10.40;99.90;;;;;;5049143;28;20013;-77
2023/11/15 04:04:37;;;;;;;0.10;0.10;;;10.50;99.90;;;;;;5059875;28;20796;-77
2023/11/15 04:07:03;;;;;;;0.10;0.10;;;10.50;99.90;;;;;;5054005;28;20044;-76
2023/11/15 04:09:32;;;;;;;0.00;0.00;;;10.60;99.90;;;;;;5054101;28;20020;-77
2023/11/15 04:11:58;;;;;;;0.10;0.10;;;10.50;99.90;;;;;;5041498;28;20037;-77
2023/11/15 04:14:25;;;;;;;0.00;0.00;;;10.50;99.90;;;;;;5046627;28;20642;-76
2023/11/15 04:16:53;;;;;;;0.10;0.10;;;10.60;99.90;;;;;;5049186;28;20056;-75
2023/11/15 04:19:23;;;;;;;0.00;0.00;;;10.70;99.90;;;;;;5045026;28;20036;-75
2023/11/15 04:21:50;;;;;;;0.00;0.00;;;10.90;99.90;;;;;;5046417;28;20032;-75
2023/11/15 04:24:20;;;;;;;0.05;0.05;;;11.00;99.90;;;;;;5051465;28;20025;-76
2023/11/15 04:26:45;;;;;;;0.05;0.05;;;11.00;99.90;;;;;;5050553;28;20037;-75
2023/11/15 04:29:12;;;;;;;0.10;0.10;;;11.00;99.90;;;;;;5050839;28;20095;-75
2023/11/15 04:31:38;;;;;;;0.00;0.00;;;11.10;99.90;;;;;;5051448;28;20458;-76
2023/11/15 04:34:05;;;;;;;0.05;0.05;;;11.10;99.90;;;;;;5046447;28;20524;-75
2023/11/15 04:36:34;;;;;;;0.22;0.22;;;11.20;99.90;;;;;;5051526;28;20033;-76
2023/11/15 04:38:59;;;;;;;0.10;0.10;;;11.20;99.90;;;;;;5051319;28;20791;-76
2023/11/15 04:41:25;;;;;;;0.10;0.10;;;11.20;99.90;;;;;;5057479;28;20063;-76
2023/11/15 04:43:51;;;;;;;0.00;0.00;;;11.20;99.90;;;;;;5055587;28;20045;-76
2023/11/15 04:46:18;;;;;;;0.10;0.10;;;11.20;99.90;;;;;;5051558;28;20028;-76
2023/11/15 04:48:44;;;;;;;0.10;0.10;;;11.30;99.90;;;;;;5050876;28;20119;-76
2023/11/15 04:51:10;;;;;;;0.10;0.10;;;11.30;99.90;;;;;;5051688;28;20029;-78
2023/11/15 04:53:36;;;;;;;0.05;0.05;;;11.30;99.90;;;;;;5051711;28;20124;-78
2023/11/15 04:56:03;;;;;;;0.05;0.05;;;11.40;99.90;;;;;;5049766;28;20048;-76
2023/11/15 04:58:29;;;;;;;0.10;0.10;;;11.40;99.90;;;;;;5051046;28;20106;-76
2023/11/15 05:00:55;;;;;;;0.10;0.10;;;11.30;99.90;;;;;;5051296;28;20055;-77
2023/11/15 05:03:20;;;;;;;0.37;0.37;;;11.40;99.90;;;;;;5050924;28;20021;-76
2023/11/15 05:05:46;;;;;;;0.10;0.10;;;11.40;99.90;;;;;;5055566;28;20073;-76
2023/11/15 05:08:12;;;;;;;0.10;0.10;;;11.40;99.90;;;;;;5052414;28;20128;-76
2023/11/15 05:10:38;;;;;;;0.00;0.00;;;11.40;99.90;;;;;;5050629;28;20036;-76
2023/11/15 05:13:06;;;;;;;0.10;0.10;;;11.50;99.90;;;;;;5047018;28;20040;-76
2023/11/15 05:15:32;;;;;;;0.00;0.00;;;11.50;99.90;;;;;;5053488;28;20055;-76
2023/11/15 05:17:59;;;;;;;0.10;0.10;;;11.40;99.90;;;;;;5051746;28;20071;-76
2023/11/15 05:20:28;;;;;;;0.10;0.10;;;11.40;99.90;;;;;;5048610;28;20053;-76
2023/11/15 05:22:55;;;;;;;2.67;1.77;;;11.50;99.90;;;;;;5050374;28;20059;-75
2023/11/15 05:25:21;;;;;;;0.10;0.10;;;11.50;99.90;;;;;;5049798;28;20036;-75
2023/11/15 05:27:47;;;;;;;0.10;0.10;;;11.40;99.90;;;;;;5049567;28;20400;-75
2023/11/15 05:30:15;;;;;;;0.10;0.10;;;11.40;99.90;;;;;;5047854;28;20049;-75
2023/11/15 05:32:40;;;;;;;0.10;0.10;;;11.40;99.90;;;;;;5045074;28;20062;-76
2023/11/15 05:35:06;;;;;;;0.00;0.00;;;11.40;99.90;;;;;;5040376;28;20029;-76
2023/11/15 05:37:32;;;;;;;0.03;0.03;;;11.40;99.90;;;;;;5037095;28;20033;-78
2023/11/15 05:39:58;;;;;;;0.00;0.00;;;11.30;99.90;;;;;;5057723;28;20423;-75
2023/11/15 05:42:24;;;;;;;0.10;0.10;;;11.30;99.90;;;;;;5044043;28;20444;-76
2023/11/15 05:44:49;;;;;;;0.37;0.37;;;11.40;99.90;;;;;;5048852;28;20029;-75
2023/11/15 05:47:18;;;;;;;1.50;1.20;;;11.30;99.90;;;;;;5036706;28;20087;-76
2023/11/15 05:49:44;;;;;;;0.10;0.10;;;11.30;99.90;;;;;;5046726;28;20029;-75
2023/11/15 05:52:12;;;;;;;1.33;1.20;;;11.30;99.90;;;;;;5042437;28;20037;-75
2023/11/15 05:54:37;;;;;;;0.10;0.10;;;11.20;99.90;;;;;;5048544;28;20039;-75
2023/11/15 05:57:04;;;;;;;9.93;1.60;;;11.20;99.90;;;;;;5042858;28;20978;-76
2023/11/15 05:59:29;;;;;;;0.28;0.28;;;11.20;99.90;;;;;;5047190;28;20021;-75
2023/11/15 06:01:55;;;;;;;0.30;0.30;;;11.20;99.90;;;;;;5049300;28;20029;-76
2023/11/15 06:04:24;;;;;;;0.10;0.10;;;11.10;99.90;;;;;;5047450;28;20699;-75
2023/11/15 06:06:49;;;;;;;0.10;0.10;;;11.00;99.90;;;;;;5040844;28;20084;-77
2023/11/15 06:09:17;;;;;;;0.00;0.00;;;11.00;99.90;;;;;;5046903;28;20032;-77
2023/11/15 06:11:43;;;;;;;0.00;0.00;;;11.00;99.90;;;;;;5045582;28;20040;-77
2023/11/15 06:14:09;;;;;;;0.00;0.00;;;11.10;99.90;;;;;;5044544;28;20021;-78
2023/11/15 06:16:38;;;;;;;0.07;0.07;;;11.10;99.90;;;;;;5047613;28;20504;-77
2023/11/15 06:19:07;;;;;;;0.10;0.10;;;10.90;99.90;;;;;;5045200;28;20441;-77
2023/11/15 06:21:34;;;;;;;0.05;0.05;;;10.90;99.90;;;;;;5043190;28;20029;-77
2023/11/15 06:24:00;;;;;;;0.10;0.10;;;10.90;99.90;;;;;;5049334;28;20770;-76
2023/11/15 06:26:26;;;;;;;0.00;0.00;;;10.90;99.90;;;;;;5049993;28;20041;-76
2023/11/15 06:28:54;;;;;;;0.10;0.10;;;10.80;99.90;;;;;;5048006;28;20340;-76
2023/11/15 06:31:21;;;;;;;0.10;0.10;;;10.90;99.90;;;;;;5043817;28;20064;-76
2023/11/15 06:33:46;;;;;;;0.00;0.00;;;10.80;99.90;;;;;;5047757;28;20024;-76
2023/11/15 06:36:12;;;;;;;0.00;0.00;;;10.80;99.90;;;;;;5049257;28;20029;-74
2023/11/15 06:38:38;;;;;;;0.00;0.00;;;10.80;99.90;;;;;;5044880;28;20029;-74
2023/11/15 06:41:07;;;;;;;0.00;0.00;;;10.80;99.90;;;;;;5044386;28;20027;-74
2023/11/15 06:43:33;;;;;;;0.10;0.10;;;10.90;99.90;;;;;;5043837;28;20035;-74
2023/11/15 06:45:58;;;;;;;0.20;0.20;;;10.90;99.90;;;;;;5041266;28;20021;-74
2023/11/15 06:48:24;;;;;;;0.00;0.00;;;10.90;99.90;;;;;;5043437;28;20032;-74
2023/11/15 06:50:50;;;;;;;0.10;0.10;;;10.90;99.90;;;;;;5046977;28;20037;-74
2023/11/15 06:53:16;;;;;;;0.00;0.00;;;10.90;99.90;;;;;;5043561;28;20025;-74
2023/11/15 06:55:42;;;;;;;0.10;0.10;;;11.10;99.90;;;;;;5043421;28;20512;-75
2023/11/15 06:58:08;;;;;;;0.00;0.00;;;11.10;99.90;;;;;;5040024;28;20025;-75
2023/11/15 07:00:34;;;;;;;0.00;0.00;;;11.10;99.90;;;;;;5043840;28;20479;-75
2023/11/15 07:03:03;;;;;;;0.00;0.00;;;11.10;99.90;;;;;;5030910;28;20037;-75
2023/11/15 07:05:31;;;;;;;2.10;2.00;;;11.30;99.90;;;;;;5038116;28;20043;-76
2023/11/15 07:07:56;;;;;;;0.20;0.20;;;11.20;99.90;;;;;;5051284;28;20029;-75
2023/11/15 07:10:22;;;;;;;0.00;0.00;;;11.20;99.90;;;;;;5048745;28;20493;-77
2023/11/15 07:12:48;;;;;;;1.42;1.35;;;11.20;99.90;;;;;;5056111;28;20255;-76
2023/11/15 07:15:16;;;;;;;0.10;0.10;;;11.20;99.90;;;;;;5042085;28;20078;-77
2023/11/15 07:17:43;;;;;;;0.17;0.17;;;11.20;99.90;;;;;;5048250;28;20507;-76
2023/11/15 07:20:10;;;;;;;0.10;0.10;;;11.10;99.90;;;;;;5046920;28;20114;-75
2023/11/15 07:22:38;;;;;;;0.00;0.00;;;11.20;99.90;;;;;;5050216;28;20104;-75
2023/11/15 07:25:06;;;;;;;0.10;0.10;;;11.30;99.90;;;;;;5047328;28;20028;-75
2023/11/15 07:27:34;;;;;;;0.10;0.10;;;11.30;99.90;;;;;;5049851;28;20799;-76
2023/11/15 07:30:00;;;;;;;0.05;0.05;;;11.30;99.90;;;;;;5046302;28;20025;-75
2023/11/15 07:32:27;;;;;;;0.00;0.00;;;11.50;99.90;;;;;;5031922;28;20105;-75
2023/11/15 07:34:54;;;;;;;0.00;0.00;;;11.50;99.90;;;;;;5029126;28;20057;-76
2023/11/15 07:37:20;;;;;;;0.10;0.10;;;11.50;99.90;;;;;;5046420;28;20021;-75
2023/11/15 07:39:46;;;;;;;0.10;0.10;;;11.50;99.90;;;;;;5033077;28;20025;-76
2023/11/15 07:42:14;;;;;;;0.10;0.10;;;11.40;99.90;;;;;;5029020;28;20091;-76
2023/11/15 07:44:40;;;;;;;0.00;0.00;;;11.30;99.90;;;;;;5043096;28;20017;-76
2023/11/15 07:47:06;;;;;;;0.10;0.10;;;11.30;99.90;;;;;;5036233;28;20021;-76
2023/11/15 07:49:32;;;;;;;0.15;0.15;;;11.30;99.90;;;;;;5047200;28;20021;-76
2023/11/15 07:51:58;;;;;;;0.10;0.10;;;11.50;99.90;;;;;;5047417;28;20781;-76
2023/11/15 07:54:24;;;;;;;0.00;0.00;;;11.40;99.90;;;;;;5047422;28;20051;-76
2023/11/15 07:56:50;;;;;;;0.13;0.13;;;11.50;99.90;;;;;;5048095;28;20132;-75
2023/11/15 07:59:16;;;;;;;0.10;0.10;;;11.60;99.90;;;;;;5048523;28;20084;-76
2023/11/15 08:01:42;;;;;;;0.30;0.30;;;11.60;99.90;;;;;;5048063;28;20124;-76
2023/11/15 08:04:08;;;;;;;0.10;0.10;;;11.70;99.90;;;;;;5048309;28;20116;-76
2023/11/15 08:06:36;;;;;;;0.10;0.10;;;11.70;99.90;;;;;;5039400;28;20033;-75
2023/11/15 08:09:07;;;;;;;0.10;0.10;;;11.80;99.90;;;;;;5047811;28;20112;-76
2023/11/15 08:11:36;;;;;;;0.17;0.17;;;12.10;99.90;;;;;;5046854;28;20029;-76
2023/11/15 08:14:06;;;;;;;0.08;0.08;;;12.10;99.90;;;;;;5047500;28;20182;-76
2023/11/15 08:16:35;;;;;;;0.05;0.05;;;12.00;99.90;;;;;;5047142;28;20017;-75
2023/11/15 08:19:01;;;;;;;0.10;0.10;;;12.00;99.90;;;;;;5046926;28;20021;-76
2023/11/15 08:21:29;;;;;;;0.00;0.00;;;12.20;99.90;;;;;;5048504;28;20407;-76
2023/11/15 08:23:54;;;;;;;0.63;0.63;;;12.30;99.90;;;;;;5048305;28;20089;-76
2023/11/15 08:26:21;;;;;;;0.10;0.10;;;12.40;99.90;;;;;;5049773;28;20960;-76
2023/11/15 08:28:47;;;;;;;0.30;0.30;;;12.50;99.90;;;;;;5049091;28;20613;-76
2023/11/15 08:31:14;;;;;;;0.10;0.10;;;12.60;99.90;;;;;;5047355;28;20028;-76
2023/11/15 08:33:40;;;;;;;0.03;0.03;;;12.60;99.90;;;;;;5045228;28;20026;-76
2023/11/15 08:36:09;;;;;;;0.10;0.10;;;12.40;99.90;;;;;;5039448;28;20017;-76
2023/11/15 08:38:34;;;;;;;0.10;0.10;;;12.30;99.90;;;;;;5048389;28;20025;-76
2023/11/15 08:41:00;;;;;;;0.10;0.10;;;12.30;99.90;;;;;;5045746;28;20024;-76
2023/11/15 08:43:26;;;;;;;0.50;0.47;;;12.20;99.90;;;;;;5047290;28;20105;-76
2023/11/15 08:45:52;;;;;;;0.00;0.00;;;12.30;99.90;;;;;;5046617;28;20029;-76
2023/11/15 08:48:18;;;;;;;0.10;0.10;;;12.50;99.90;;;;;;5047130;28;20032;-76
2023/11/15 08:50:44;;;;;;;0.10;0.10;;;12.60;99.90;;;;;;5046538;28;20029;-75
2023/11/15 08:53:11;;;;;;;0.10;0.10;;;12.70;99.90;;;;;;5046897;28;20090;-76
2023/11/15 08:55:37;;;;;;;;;;;12.70;99.90;;;;;;5048555;28;20275;-76
2023/11/15 08:58:05;;;;;;;0.10;0.10;;;12.60;99.90;;;;;;5046886;28;19944;-76
2023/11/15 09:00:31;;;;;;;0.10;0.10;;;12.50;99.90;;;;;;5043402;28;20512;-76
2023/11/15 09:02:57;;;;;;;0.10;0.10;;;12.50;99.90;;;;;;5048971;28;20036;-76
2023/11/15 09:05:24;;;;;;;0.00;0.00;;;12.50;99.90;;;;;;5049989;28;20041;-76
2023/11/15 09:07:53;;;;;;;0.00;0.00;;;12.20;99.90;;;;;;5048134;28;20033;-75
2023/11/15 09:10:21;;;;;;;0.00;0.00;;;12.30;99.90;;;;;;5051663;28;20032;-76
2023/11/15 09:12:47;;;;;;;0.20;0.20;;;12.20;99.90;;;;;;5049502;28;20435;-76
2023/11/15 09:15:13;;;;;;;0.00;0.00;;;12.10;99.90;;;;;;5050966;28;20071;-76
2023/11/15 09:17:46;;;;;;;0.03;0.03;;;12.10;99.90;;;;;;5053515;28;20024;-76
2023/11/15 09:20:25;;;;;;;0.10;0.10;;;12.40;99.90;;;;;;5050417;28;20031;-76
2023/11/15 09:22:53;;;;;;;0.10;0.10;;;12.70;99.90;;;;;;5050135;28;20021;-76
2023/11/15 09:25:27;;;;;;;0.00;0.00;;;13.30;99.90;;;;;;5050203;28;20578;-76
2023/11/15 09:27:55;;;;;;;0.00;0.00;;;13.30;99.90;;;;;;5041513;28;20029;-76
2023/11/15 09:30:22;;;;;;;2.38;2.17;;;13.60;99.90;;;;;;5052336;28;20037;-76
2023/11/15 09:32:51;;;;;;;0.00;0.00;;;14.10;99.90;;;;;;5052145;28;20023;-76
2023/11/15 09:35:21;;;;;;;0.00;0.00;;;14.80;99.90;;;;;;5048267;28;20033;-76
2023/11/15 09:37:50;;;;;;;0.00;0.00;;;15.50;99.90;;;;;;5044954;28;20029;-76
2023/11/15 09:40:16;;;;;;;0.00;0.00;;;15.80;99.90;;;;;;5048908;28;20036;-76
2023/11/15 09:42:46;;;;;;;0.00;0.00;;;16.00;99.90;;;;;;5051242;28;20072;-76
2023/11/15 09:45:17;;;;;;;0.00;0.00;;;15.40;99.90;;;;;;5053214;28;20040;-76
2023/11/15 09:47:47;;;;;;;0.00;0.00;;;14.90;99.90;;;;;;5050005;28;20028;-76
2023/11/15 09:50:21;;;;;;;0.00;0.00;;;14.60;99.90;;;;;;5048571;28;20036;-76
2023/11/15 09:52:49;;;;;;;0.00;0.00;;;14.40;99.90;;;;;;5050244;28;20024;-77
2023/11/15 09:55:19;;;;;;;0.10;0.10;;;14.10;99.90;;;;;;5051849;28;20044;-76
2023/11/15 09:57:46;;;;;;;0.00;0.00;;;13.80;99.90;;;;;;5051508;28;20021;-76
2023/11/15 10:00:15;;;;;;;0.00;0.00;;;13.80;99.90;;;;;;5049206;28;20029;-76
2023/11/15 10:02:41;;;;;;;0.00;0.00;;;14.20;99.90;;;;;;5048939;28;20052;-76
2023/11/15 10:05:23;;;;;;;0.00;0.00;;;14.10;99.90;;;;;;5048835;28;20044;-76
2023/11/15 10:07:52;;;;;;;0.00;0.00;;;14.70;99.90;;;;;;5040785;28;20112;-76
2023/11/15 10:10:24;;;;;;;0.00;0.00;;;15.20;99.90;;;;;;5049900;28;20095;-76
2023/11/15 10:12:54;;;;;;;0.05;0.05;;;14.80;99.90;;;;;;5040745;28;20045;-76
2023/11/15 10:15:33;;;;;;;0.00;0.00;;;14.20;99.90;;;;;;5049178;28;20032;-75
2023/11/15 10:18:00;;;;;;;0.00;0.00;;;14.00;99.90;;;;;;5044281;28;20021;-76
2023/11/15 10:20:26;;;;;;;0.00;0.00;;;13.80;99.90;;;;;;5049367;28;20115;-76
2023/11/15 10:22:53;;;;;;;0.30;0.30;;;13.70;99.90;;;;;;5051651;28;20093;-76
2023/11/15 10:25:25;;;;;;;0.00;0.00;;;13.70;99.90;;;;;;5053743;28;20067;-76
2023/11/15 10:28:03;;;;;;;0.90;0.65;;;14.60;99.90;;;;;;5047691;28;20040;-77
2023/11/15 10:30:28;;;;;;;0.08;0.08;;;14.50;99.90;;;;;;5053458;28;20122;-76
2023/11/15 10:33:13;;;;;;;0.00;0.00;;;14.20;99.90;;;;;;5048440;28;20064;-76
2023/11/15 10:35:39;;;;;;;0.03;0.03;;;14.00;99.90;;;;;;5051939;28;20055;-77
2023/11/15 10:38:14;;;;;;;0.00;0.00;;;14.10;99.90;;;;;;5046231;28;20404;-76
2023/11/15 10:40:43;;;;;;;0.17;0.17;;;14.90;99.90;;;;;;5047563;28;20792;-77
2023/11/15 10:43:12;;;;;;;0.00;0.00;;;15.70;99.90;;;;;;5048671;28;20084;-77
2023/11/15 10:45:43;;;;;;;0.00;0.00;;;15.80;99.90;;;;;;5052389;28;20116;-76
2023/11/15 10:48:11;;;;;;;0.00;0.00;;;15.90;99.90;;;;;;5048205;28;20029;-76
2023/11/15 10:50:45;;;;;;;0.00;0.00;;;15.90;99.90;;;;;;5046647;28;20033;-77
2023/11/15 10:53:12;;;;;;;0.00;0.00;;;15.90;99.90;;;;;;5053935;28;20499;-76
2023/11/15 10:55:39;;;;;;;0.00;0.00;;;16.20;99.90;;;;;;5053618;28;20510;-77
2023/11/15 10:58:08;;;;;;;0.00;0.00;;;16.50;99.90;;;;;;5052742;28;20520;-76
2023/11/15 11:00:35;;;;;;;0.00;0.00;;;16.60;99.90;;;;;;5049245;28;20025;-76
2023/11/15 11:03:06;;;;;;;;;;;16.70;99.90;;;;;;5054360;28;20041;-77
2023/11/15 11:05:46;;;;;;;0.00;0.00;;;17.00;99.90;;;;;;5051850;28;19915;-76
2023/11/15 11:08:12;;;;;;;0.00;0.00;;;17.00;99.90;;;;;;5053011;28;20032;-77
2023/11/15 11:10:45;;;;;;;0.00;0.00;;;16.50;99.90;;;;;;5048331;28;20028;-76
2023/11/15 11:13:21;;;;;;;0.00;0.00;;;16.10;99.90;;;;;;5044696;28;20027;-76
2023/11/15 11:15:47;;;;;;;;;;;15.50;99.90;;;;;;5048955;28;20025;-77
2023/11/15 11:18:21;;;;;;;0.00;0.00;;;14.90;99.90;;;;;;5048196;28;19909;-77
2023/11/15 11:21:02;;;;;;;0.63;0.63;;;14.70;99.90;;;;;;5048497;28;20581;-77
2023/11/15 11:23:30;;;;;;;0.00;0.00;;;14.60;99.90;;;;;;5048519;28;20033;-76
2023/11/15 11:26:35;;;;;;;0.00;0.00;;;14.40;99.90;;;;;;5059214;28;20020;-77
2023/11/15 11:29:03;;;;;;;0.00;0.00;;;14.30;99.90;;;;;;5048504;28;20083;-76
2023/11/15 11:31:28;;;;;;;0.00;0.00;;;14.10;99.90;;;;;;5047414;28;20021;-76
2023/11/15 11:34:12;;;;;;;0.00;0.00;;;14.10;99.90;;;;;;5047542;28;20094;-76
2023/11/15 11:36:49;;;;;;;0.00;0.00;;;13.90;99.90;;;;;;5044416;28;20021;-76
2023/11/15 11:39:20;;;;;;;0.00;0.00;;;13.50;99.90;;;;;;5050626;28;20559;-77
2023/11/15 11:41:48;;;;;;;0.00;0.00;;;13.50;99.90;;;;;;5053295;28;20053;-76
2023/11/15 11:44:14;;;;;;;0.00;0.00;;;13.60;99.90;;;;;;5046261;28;20040;-77
2023/11/15 11:46:40;;;;;;;0.00;0.00;;;13.60;99.90;;;;;;5051074;28;20111;-76
2023/11/15 11:49:05;;;;;;;0.10;0.10;;;13.40;99.90;;;;;;5052002;28;20033;-76
2023/11/15 11:51:31;;;;;;;0.00;0.00;;;13.30;99.90;;;;;;5047574;28;20479;-76
2023/11/15 11:53:57;;;;;;;0.03;0.03;;;13.30;99.90;;;;;;5046079;28;20055;-77
2023/11/15 11:56:24;;;;;;;0.00;0.00;;;13.30;99.90;;;;;;5047565;28;20063;-77
2023/11/15 11:58:50;;;;;;;0.00;0.00;;;13.60;99.90;;;;;;5057775;28;20031;-76
2023/11/15 12:01:15;;;;;;;0.00;0.00;;;13.80;99.90;;;;;;5051501;28;20029;-76
2023/11/15 12:03:57;;;;;;;0.00;0.00;;;13.80;99.90;;;;;;5046693;28;20108;-77
2023/11/15 12:06:23;;;;;;;0.10;0.10;;;13.70;99.90;;;;;;5041784;28;20536;-77
2023/11/15 12:08:53;;;;;;;0.10;0.10;;;13.80;99.90;;;;;;5045858;28;20290;-76
2023/11/15 12:11:22;;;;;;;0.10;0.10;;;13.90;99.90;;;;;;5046357;28;20068;-77
2023/11/15 12:13:50;;;;;;;0.00;0.00;;;14.00;99.90;;;;;;5034768;28;20100;-76
2023/11/15 12:16:17;;;;;;;0.00;0.00;;;14.20;99.90;;;;;;5048462;28;20113;-76
2023/11/15 12:18:55;;;;;;;;;;;14.40;99.90;;;;;;5045857;28;20212;-77
2023/11/15 12:21:21;;;;;;;0.00;0.00;;;14.60;99.90;;;;;;5038157;28;19908;-77
2023/11/15 12:23:48;;;;;;;0.00;0.00;;;14.60;99.90;;;;;;5050616;28;20029;-76
2023/11/15 12:26:14;;;;;;;0.00;0.00;;;14.60;99.90;;;;;;5050229;28;20029;-77
2023/11/15 12:28:40;;;;;;;0.00;0.00;;;14.80;99.90;;;;;;5047551;28;20098;-77
2023/11/15 12:31:07;;;;;;;2.37;2.27;;;14.80;99.90;;;;;;5047652;28;20033;-76
2023/11/15 12:33:34;;;;;;;0.00;0.00;;;14.80;99.90;;;;;;5046597;28;20017;-76
2023/11/15 12:36:02;;;;;;;0.00;0.00;;;14.90;99.90;;;;;;5045697;28;20494;-76
2023/11/15 12:38:29;;;;;;;0.00;0.00;;;14.80;99.90;;;;;;5046399;28;20642;-76
2023/11/15 12:41:03;;;;;;;0.00;0.00;;;14.90;99.90;;;;;;5051119;28;20103;-76
2023/11/15 12:43:30;;;;;;;0.00;0.00;;;14.90;99.90;;;;;;5045913;28;20025;-77
2023/11/15 12:45:57;;;;;;;0.00;0.00;;;15.00;99.90;;;;;;5050222;28;20033;-75
2023/11/15 12:48:23;;;;;;;0.00;0.00;;;14.90;99.90;;;;;;5051827;28;20025;-76